Time;durP1;ratioP1;P1;durP2;ratioP2;P2;SDS_P1;SDS_P2;PMS_P1;PMS_P2;Temp;Humidity;BMP_temperature;BMP_pressure;BME280_temperature;BME280_humidity;BME280_pressure;Samples;Min_cycle;Max_cycle;Signal;HPM_P1;HPM_P2
2024/01/03 00:00:28;;;;;;;0.50;0.50;;;9.30;99.90;;;;;;2059030;28;20084;-73
2024/01/03 00:01:29;;;;;;;0.50;0.50;;;9.30;99.90;;;;;;2054490;28;20532;-72
2024/01/03 00:02:31;;;;;;;0.63;0.50;;;9.40;99.90;;;;;;2058920;28;20044;-71
2024/01/03 00:03:32;;;;;;;1.20;0.50;;;9.40;99.90;;;;;;2059641;28;20030;-71
2024/01/03 00:04:33;;;;;;;1.00;0.60;;;9.40;99.90;;;;;;2058198;28;20046;-72
2024/01/03 00:05:41;;;;;;;0.50;0.50;;;9.50;99.90;;;;;;2058762;28;20042;-72
2024/01/03 00:06:42;;;;;;;1.08;0.40;;;9.50;99.90;;;;;;2049351;28;20042;-72
2024/01/03 00:07:42;;;;;;;0.50;0.50;;;9.40;99.90;;;;;;2049998;28;20126;-72
2024/01/03 00:08:43;;;;;;;0.65;0.65;;;9.50;99.90;;;;;;2059571;28;20049;-72
2024/01/03 00:09:43;;;;;;;0.68;0.68;;;9.50;99.90;;;;;;2059992;28;20106;-72
2024/01/03 00:10:51;;;;;;;0.50;0.50;;;9.50;99.90;;;;;;2057484;28;20056;-72
2024/01/03 00:11:51;;;;;;;1.15;0.50;;;9.50;99.90;;;;;;2061646;28;20023;-72
2024/01/03 00:12:52;;;;;;;0.40;0.40;;;9.50;99.90;;;;;;2060301;28;21073;-72
2024/01/03 00:14:22;;;;;;;0.50;0.50;;;9.60;99.90;;;;;;2057720;28;20117;-72
2024/01/03 00:15:35;;;;;;;0.88;0.50;;;9.60;99.90;;;;;;2058654;28;20481;-72
2024/01/03 00:16:38;;;;;;;1.27;0.50;;;9.50;99.90;;;;;;2057684;28;20058;-71
2024/01/03 00:17:43;;;;;;;0.52;0.50;;;9.60;99.90;;;;;;2057991;28;20042;-72
2024/01/03 00:18:53;;;;;;;0.85;0.50;;;9.60;99.90;;;;;;2060376;28;20110;-71
2024/01/03 00:19:57;;;;;;;0.50;0.50;;;9.60;99.90;;;;;;2060576;28;20030;-72
2024/01/03 00:20:58;;;;;;;0.50;0.50;;;9.60;99.90;;;;;;2063151;28;20038;-72
2024/01/03 00:21:58;;;;;;;0.60;0.60;;;9.60;99.90;;;;;;2062141;28;20403;-72
2024/01/03 00:23:03;;;;;;;0.50;0.50;;;9.60;99.90;;;;;;2059021;28;20022;-72
2024/01/03 00:24:05;;;;;;;0.40;0.40;;;9.60;99.90;;;;;;2059787;28;20054;-71
2024/01/03 00:25:09;;;;;;;0.50;0.50;;;9.70;99.90;;;;;;2063107;28;20034;-72
2024/01/03 00:26:10;;;;;;;0.65;0.50;;;9.70;99.90;;;;;;2060122;28;20089;-72
2024/01/03 00:27:15;;;;;;;0.50;0.50;;;9.70;99.90;;;;;;2063219;28;20019;-72
2024/01/03 00:28:15;;;;;;;0.50;0.50;;;9.70;99.90;;;;;;2059631;28;20062;-72
2024/01/03 00:29:25;;;;;;;0.50;0.50;;;9.80;99.90;;;;;;2055272;28;20026;-72
2024/01/03 00:30:25;;;;;;;0.70;0.60;;;9.80;99.90;;;;;;2065659;28;20088;-73
2024/01/03 00:31:43;;;;;;;0.70;0.70;;;9.80;99.90;;;;;;2056275;28;20193;-72
2024/01/03 00:32:43;;;;;;;0.50;0.50;;;9.80;99.90;;;;;;2052790;28;20058;-72
2024/01/03 00:33:44;;;;;;;1.17;0.60;;;9.80;99.90;;;;;;2050566;28;20039;-72
2024/01/03 00:34:45;;;;;;;0.60;0.60;;;9.90;99.90;;;;;;2050751;28;20037;-72
2024/01/03 00:35:46;;;;;;;0.98;0.50;;;9.90;99.90;;;;;;2050240;28;20049;-72
2024/01/03 00:36:55;;;;;;;1.08;0.50;;;9.90;99.90;;;;;;2058689;28;20041;-72
2024/01/03 00:37:56;;;;;;;0.50;0.50;;;9.90;99.90;;;;;;2066132;28;20029;-73
2024/01/03 00:38:57;;;;;;;0.60;0.60;;;9.90;99.90;;;;;;2062150;28;20037;-72
2024/01/03 00:39:59;;;;;;;0.50;0.50;;;9.80;99.90;;;;;;2069925;28;20038;-72
2024/01/03 00:41:00;;;;;;;0.60;0.60;;;9.90;99.90;;;;;;2058255;28;20034;-72
2024/01/03 00:42:02;;;;;;;0.50;0.50;;;9.90;99.90;;;;;;2058615;28;20026;-72
2024/01/03 00:43:04;;;;;;;0.52;0.52;;;10.00;99.90;;;;;;2054229;28;20107;-72
2024/01/03 00:44:05;;;;;;;0.60;0.60;;;10.00;99.90;;;;;;2054766;28;20396;-72
2024/01/03 00:45:06;;;;;;;0.60;0.60;;;10.00;99.90;;;;;;2056176;28;20026;-72
2024/01/03 00:46:08;;;;;;;0.50;0.50;;;10.00;99.90;;;;;;2064520;28;20026;-72
2024/01/03 00:47:09;;;;;;;0.70;0.60;;;10.00;99.90;;;;;;2062539;28;20066;-72
2024/01/03 00:48:09;;;;;;;0.80;0.50;;;10.00;99.90;;;;;;2058970;28;20050;-71
2024/01/03 00:49:11;;;;;;;0.60;0.60;;;10.00;99.90;;;;;;2059309;28;20026;-71
2024/01/03 00:50:12;;;;;;;0.50;0.50;;;10.00;99.90;;;;;;2058536;28;20677;-72
2024/01/03 00:51:12;;;;;;;0.50;0.50;;;9.90;99.90;;;;;;2058560;28;20018;-72
2024/01/03 00:52:13;;;;;;;0.70;0.50;;;9.90;99.90;;;;;;2057725;28;20488;-72
2024/01/03 00:53:15;;;;;;;0.80;0.70;;;10.00;99.90;;;;;;2052923;28;20041;-72
2024/01/03 00:54:18;;;;;;;0.60;0.60;;;10.00;99.90;;;;;;2063329;28;20113;-71
2024/01/03 00:55:19;;;;;;;0.75;0.60;;;10.00;99.90;;;;;;2053076;28;20109;-72
2024/01/03 00:56:19;;;;;;;1.48;0.60;;;10.00;99.90;;;;;;2044228;28;20023;-72
2024/01/03 00:57:20;;;;;;;0.85;0.60;;;9.90;99.90;;;;;;2050809;28;20065;-72
2024/01/03 00:58:21;;;;;;;0.60;0.60;;;9.90;99.90;;;;;;2050996;28;20042;-71
2024/01/03 00:59:21;;;;;;;1.63;0.65;;;9.90;99.90;;;;;;2058732;28;20023;-72
2024/01/03 01:00:22;;;;;;;0.68;0.60;;;9.80;99.90;;;;;;2058830;28;20018;-72
2024/01/03 01:01:24;;;;;;;0.60;0.60;;;9.80;99.90;;;;;;2051032;28;20106;-72
2024/01/03 01:02:25;;;;;;;1.20;0.65;;;9.80;99.90;;;;;;2051921;28;20035;-74
2024/01/03 01:03:26;;;;;;;0.73;0.65;;;9.80;99.90;;;;;;2063907;28;20153;-72
2024/01/03 01:04:26;;;;;;;0.60;0.60;;;9.80;99.90;;;;;;2064166;28;20058;-72
2024/01/03 01:05:27;;;;;;;0.70;0.70;;;9.80;99.90;;;;;;2063700;28;20052;-72
2024/01/03 01:06:27;;;;;;;0.60;0.60;;;9.70;99.90;;;;;;2064624;28;20026;-72
2024/01/03 01:07:28;;;;;;;0.60;0.60;;;9.70;99.90;;;;;;2062494;28;20100;-72
2024/01/03 01:08:28;;;;;;;1.27;0.50;;;9.70;99.90;;;;;;2064065;28;20413;-71
2024/01/03 01:09:29;;;;;;;0.52;0.50;;;9.70;99.90;;;;;;2063509;28;20151;-73
2024/01/03 01:10:29;;;;;;;0.60;0.60;;;9.70;99.90;;;;;;2061803;28;20052;-72
2024/01/03 01:11:30;;;;;;;0.60;0.60;;;9.80;99.90;;;;;;2055446;28;20513;-71
2024/01/03 01:12:31;;;;;;;0.70;0.70;;;9.80;99.90;;;;;;2060938;28;20057;-72
2024/01/03 01:13:31;;;;;;;0.70;0.70;;;9.90;99.90;;;;;;2064467;28;20519;-73
2024/01/03 01:14:32;;;;;;;0.77;0.60;;;9.90;99.90;;;;;;2062871;28;20363;-72
2024/01/03 01:15:32;;;;;;;0.90;0.57;;;9.80;99.90;;;;;;2062008;28;20068;-72
2024/01/03 01:16:33;;;;;;;0.50;0.50;;;9.80;99.90;;;;;;2059745;28;20381;-72
2024/01/03 01:17:33;;;;;;;0.55;0.50;;;9.80;99.90;;;;;;2055935;28;20038;-72
2024/01/03 01:18:34;;;;;;;1.75;0.60;;;9.90;99.90;;;;;;2059814;28;20511;-72
2024/01/03 01:19:34;;;;;;;0.55;0.55;;;9.90;99.90;;;;;;2063798;28;20423;-72
2024/01/03 01:20:35;;;;;;;0.60;0.60;;;9.90;99.90;;;;;;2062901;28;20121;-71
2024/01/03 01:21:39;;;;;;;0.57;0.57;;;9.90;99.90;;;;;;2061537;28;20026;-72
2024/01/03 01:22:40;;;;;;;0.50;0.50;;;10.00;99.90;;;;;;2063492;28;20040;-72
2024/01/03 01:23:42;;;;;;;0.50;0.50;;;10.00;99.90;;;;;;2053075;28;20035;-72
2024/01/03 01:24:42;;;;;;;2.47;0.60;;;10.00;99.90;;;;;;2058612;28;20022;-72
2024/01/03 01:25:43;;;;;;;0.60;0.60;;;10.00;99.90;;;;;;2050288;28;20053;-71
2024/01/03 01:26:43;;;;;;;0.70;0.60;;;9.90;99.90;;;;;;2056374;28;20118;-71
2024/01/03 01:27:44;;;;;;;0.50;0.50;;;10.00;99.90;;;;;;2060385;28;20037;-72
2024/01/03 01:28:44;;;;;;;2.35;0.70;;;9.90;99.90;;;;;;2051127;28;20023;-73
2024/01/03 01:29:45;;;;;;;0.60;0.60;;;10.00;99.90;;;;;;2059998;28;20030;-72
2024/01/03 01:30:45;;;;;;;0.73;0.50;;;10.00;99.90;;;;;;2060071;28;20451;-72
2024/01/03 01:31:47;;;;;;;0.63;0.60;;;9.90;99.90;;;;;;2059470;28;20088;-73
2024/01/03 01:32:48;;;;;;;1.35;0.80;;;10.00;99.90;;;;;;2060461;28;20125;-73
2024/01/03 01:33:48;;;;;;;0.65;0.65;;;9.90;99.90;;;;;;2056578;28;20034;-73
2024/01/03 01:34:49;;;;;;;0.60;0.60;;;10.00;99.90;;;;;;2064199;28;20036;-73
2024/01/03 01:35:50;;;;;;;0.50;0.50;;;9.90;99.90;;;;;;2067397;28;20512;-73
2024/01/03 01:36:51;;;;;;;1.27;0.60;;;10.00;99.90;;;;;;2069528;28;20026;-72
2024/01/03 01:37:51;;;;;;;0.47;0.47;;;10.00;99.90;;;;;;2063892;28;20111;-72
2024/01/03 01:38:52;;;;;;;0.60;0.60;;;10.00;99.90;;;;;;2051556;28;20441;-72
2024/01/03 01:39:52;;;;;;;1.08;0.60;;;10.10;99.90;;;;;;2051166;28;20035;-71
2024/01/03 01:40:53;;;;;;;0.57;0.57;;;10.10;99.90;;;;;;2063330;28;20080;-70
2024/01/03 01:41:54;;;;;;;1.20;0.60;;;10.00;99.90;;;;;;2064460;28;20048;-67
2024/01/03 01:42:54;;;;;;;0.57;0.57;;;10.10;99.90;;;;;;2060274;28;20034;-69
2024/01/03 01:43:55;;;;;;;0.82;0.50;;;10.10;99.90;;;;;;2064210;28;20026;-72
2024/01/03 01:44:56;;;;;;;1.00;0.63;;;10.10;99.90;;;;;;2063998;28;20037;-69
2024/01/03 01:45:57;;;;;;;0.50;0.50;;;10.10;99.90;;;;;;2059709;28;20077;-69
2024/01/03 01:46:58;;;;;;;0.77;0.60;;;10.10;99.90;;;;;;2063071;28;20456;-71
2024/01/03 01:48:00;;;;;;;0.50;0.50;;;10.10;99.90;;;;;;2071321;28;20134;-70
2024/01/03 01:49:03;;;;;;;0.50;0.50;;;10.10;99.90;;;;;;2060438;28;20493;-71
2024/01/03 01:50:05;;;;;;;0.60;0.60;;;10.20;99.90;;;;;;2058111;28;20034;-70
2024/01/03 01:51:05;;;;;;;0.63;0.63;;;10.20;99.90;;;;;;2057253;28;20209;-70
2024/01/03 01:52:10;;;;;;;0.85;0.60;;;10.10;99.90;;;;;;2054853;28;20432;-71
2024/01/03 01:53:12;;;;;;;0.57;0.57;;;10.10;99.90;;;;;;2061397;28;20030;-70
2024/01/03 01:54:13;;;;;;;0.60;0.60;;;10.10;99.90;;;;;;2063969;28;20046;-70
2024/01/03 01:55:14;;;;;;;0.60;0.60;;;10.10;99.90;;;;;;2058906;28;20057;-70
2024/01/03 01:56:16;;;;;;;0.50;0.50;;;10.10;99.90;;;;;;2061340;28;20033;-70
2024/01/03 01:57:18;;;;;;;0.65;0.60;;;10.10;99.90;;;;;;2063145;28;20160;-70
2024/01/03 01:58:21;;;;;;;0.60;0.60;;;10.20;99.90;;;;;;2054864;28;20030;-70
2024/01/03 01:59:22;;;;;;;0.57;0.57;;;10.20;99.90;;;;;;2064629;28;20387;-70
2024/01/03 02:00:23;;;;;;;0.63;0.60;;;10.20;99.90;;;;;;2063050;28;20022;-70
2024/01/03 02:01:24;;;;;;;0.60;0.60;;;10.20;99.90;;;;;;2060166;28;20042;-71
2024/01/03 02:02:25;;;;;;;0.50;0.50;;;10.20;99.90;;;;;;2062942;28;20053;-69
2024/01/03 02:03:26;;;;;;;0.60;0.60;;;10.20;99.90;;;;;;2063134;28;20084;-69
2024/01/03 02:04:27;;;;;;;0.45;0.45;;;10.30;99.90;;;;;;2060307;28;20084;-71
2024/01/03 02:05:28;;;;;;;0.50;0.50;;;10.30;99.90;;;;;;2056484;28;20030;-69
2024/01/03 02:06:29;;;;;;;0.50;0.50;;;10.20;99.90;;;;;;2059362;28;20038;-71
2024/01/03 02:07:30;;;;;;;0.52;0.52;;;10.20;99.90;;;;;;2051264;28;20043;-71
2024/01/03 02:08:33;;;;;;;0.50;0.50;;;10.20;99.90;;;;;;2059206;28;20043;-72
2024/01/03 02:09:34;;;;;;;1.10;0.50;;;10.20;99.90;;;;;;2063040;28;20084;-71
2024/01/03 02:10:34;;;;;;;0.70;0.70;;;10.20;99.90;;;;;;2060778;28;20585;-71
2024/01/03 02:11:42;;;;;;;0.50;0.50;;;10.20;99.90;;;;;;2062470;28;20045;-71
2024/01/03 02:12:43;;;;;;;0.60;0.60;;;10.20;99.90;;;;;;2052709;28;20015;-71
2024/01/03 02:13:44;;;;;;;0.63;0.60;;;10.20;99.90;;;;;;2054764;28;20109;-71
2024/01/03 02:14:44;;;;;;;0.60;0.60;;;10.10;99.90;;;;;;2061501;28;20030;-71
2024/01/03 02:15:45;;;;;;;0.90;0.50;;;10.10;99.90;;;;;;2060971;28;20121;-71
2024/01/03 02:16:46;;;;;;;0.63;0.63;;;10.20;99.90;;;;;;2060350;28;20487;-71
2024/01/03 02:17:47;;;;;;;0.50;0.50;;;10.10;99.90;;;;;;2060610;28;20496;-70
2024/01/03 02:18:48;;;;;;;0.90;0.68;;;10.10;99.90;;;;;;2060744;28;20069;-71
2024/01/03 02:19:50;;;;;;;0.77;0.65;;;10.10;99.90;;;;;;2060561;28;20046;-69
2024/01/03 02:20:53;;;;;;;0.50;0.50;;;10.10;99.90;;;;;;2061712;28;20034;-70
2024/01/03 02:21:53;;;;;;;0.60;0.57;;;10.10;99.90;;;;;;2057996;28;20030;-71
2024/01/03 02:22:54;;;;;;;0.60;0.60;;;10.10;99.90;;;;;;2061230;28;20030;-70
2024/01/03 02:23:54;;;;;;;1.17;0.60;;;10.10;99.90;;;;;;2054741;28;20089;-70
2024/01/03 02:24:55;;;;;;;0.60;0.60;;;10.10;99.90;;;;;;2051356;28;20116;-71
2024/01/03 02:25:56;;;;;;;0.70;0.70;;;10.00;99.90;;;;;;2058309;28;20042;-72
2024/01/03 02:26:56;;;;;;;1.10;0.65;;;10.00;99.90;;;;;;2059267;28;20034;-71
2024/01/03 02:27:57;;;;;;;1.85;0.60;;;10.10;99.90;;;;;;2067041;28;20022;-70
2024/01/03 02:28:57;;;;;;;0.88;0.70;;;10.10;99.90;;;;;;2059758;28;20048;-72
2024/01/03 02:29:58;;;;;;;1.23;0.50;;;10.10;99.90;;;;;;2063491;28;20468;-70
2024/01/03 02:30:58;;;;;;;0.70;0.70;;;10.10;99.90;;;;;;2060217;28;20096;-70
2024/01/03 02:31:59;;;;;;;0.63;0.63;;;10.10;99.90;;;;;;2060746;28;20026;-70
2024/01/03 02:32:59;;;;;;;0.50;0.50;;;10.10;99.90;;;;;;2060245;28;20122;-70
2024/01/03 02:34:00;;;;;;;1.45;0.60;;;10.10;99.90;;;;;;2063817;28;20030;-70
2024/01/03 02:35:00;;;;;;;0.85;0.68;;;10.10;99.90;;;;;;2063561;28;20483;-70
2024/01/03 02:36:01;;;;;;;0.82;0.60;;;10.10;99.90;;;;;;2060242;28;20519;-70
2024/01/03 02:37:02;;;;;;;0.70;0.60;;;10.10;99.90;;;;;;2063253;28;20026;-70
2024/01/03 02:38:03;;;;;;;1.25;0.60;;;10.20;99.90;;;;;;2063004;28;20570;-70
2024/01/03 02:39:04;;;;;;;1.88;0.93;;;10.10;99.90;;;;;;2061960;28;20037;-69
2024/01/03 02:40:06;;;;;;;1.90;0.73;;;10.10;99.90;;;;;;2060229;28;20302;-70
2024/01/03 02:41:06;;;;;;;0.60;0.60;;;10.20;99.90;;;;;;2063813;28;20069;-70
2024/01/03 02:42:07;;;;;;;0.60;0.60;;;10.20;99.90;;;;;;2062814;28;20037;-70
2024/01/03 02:43:08;;;;;;;0.68;0.60;;;10.20;99.90;;;;;;2059251;28;20030;-69
2024/01/03 02:44:10;;;;;;;1.48;0.70;;;10.20;99.90;;;;;;2063437;28;20018;-70
2024/01/03 02:45:11;;;;;;;0.70;0.70;;;10.20;99.90;;;;;;2063542;28;20029;-70
2024/01/03 02:46:11;;;;;;;1.38;0.70;;;10.20;99.90;;;;;;2060019;28;20106;-70
2024/01/03 02:47:12;;;;;;;0.60;0.60;;;10.30;99.90;;;;;;2059862;28;20022;-70
2024/01/03 02:48:12;;;;;;;0.90;0.77;;;10.20;99.90;;;;;;2059729;28;20064;-70
2024/01/03 02:49:13;;;;;;;0.60;0.60;;;10.20;99.90;;;;;;2060308;28;20089;-69
2024/01/03 02:50:13;;;;;;;0.98;0.60;;;10.20;99.90;;;;;;2062457;28;20033;-70
2024/01/03 02:51:21;;;;;;;0.73;0.73;;;10.20;99.90;;;;;;2058985;28;20073;-70
2024/01/03 02:52:22;;;;;;;1.48;0.80;;;10.20;99.90;;;;;;2057640;28;20030;-70
2024/01/03 02:53:22;;;;;;;0.80;0.60;;;10.20;99.90;;;;;;2059673;28;20030;-70
2024/01/03 02:54:23;;;;;;;0.80;0.70;;;10.20;99.90;;;;;;2063780;28;20030;-71
2024/01/03 02:55:23;;;;;;;0.80;0.80;;;10.20;99.90;;;;;;2063367;28;20215;-71
2024/01/03 02:56:24;;;;;;;0.90;0.80;;;10.20;99.90;;;;;;2054749;28;20556;-71
2024/01/03 02:57:27;;;;;;;0.80;0.80;;;10.10;99.90;;;;;;2052194;28;20031;-71
2024/01/03 02:58:28;;;;;;;0.65;0.65;;;10.20;99.90;;;;;;2061252;28;20040;-71
2024/01/03 02:59:28;;;;;;;0.90;0.70;;;10.20;99.90;;;;;;2063629;28;20033;-71
2024/01/03 03:00:29;;;;;;;1.40;1.23;;;10.20;99.90;;;;;;2061564;28;20042;-71
2024/01/03 03:01:29;;;;;;;0.80;0.80;;;10.20;99.90;;;;;;2060899;28;20049;-70
2024/01/03 03:02:30;;;;;;;0.90;0.68;;;10.30;99.90;;;;;;2062708;28;20041;-70
2024/01/03 03:03:30;;;;;;;0.65;0.63;;;10.40;99.90;;;;;;2061848;28;20034;-70
2024/01/03 03:04:31;;;;;;;1.48;0.80;;;10.40;99.90;;;;;;2061229;28;20092;-71
2024/01/03 03:05:32;;;;;;;0.80;0.80;;;10.40;99.90;;;;;;2063517;28;20423;-70
2024/01/03 03:06:32;;;;;;;0.93;0.80;;;10.30;99.90;;;;;;2061904;28;20045;-70
2024/01/03 03:07:33;;;;;;;0.80;0.70;;;10.30;99.90;;;;;;2060987;28;20061;-71
2024/01/03 03:08:33;;;;;;;2.00;0.80;;;10.30;99.90;;;;;;2061473;28;20205;-71
2024/01/03 03:09:34;;;;;;;0.70;0.70;;;10.30;99.90;;;;;;2062920;28;20543;-71
2024/01/03 03:10:34;;;;;;;0.90;0.80;;;10.30;99.90;;;;;;2059425;28;20088;-70
2024/01/03 03:11:35;;;;;;;0.80;0.70;;;10.20;99.90;;;;;;2059555;28;20034;-71
2024/01/03 03:12:35;;;;;;;0.70;0.70;;;10.30;99.90;;;;;;2059617;28;20038;-70
2024/01/03 03:13:36;;;;;;;0.85;0.70;;;10.30;99.90;;;;;;2062632;28;20038;-70
2024/01/03 03:14:37;;;;;;;0.65;0.65;;;10.40;99.90;;;;;;2062797;28;20133;-70
2024/01/03 03:15:37;;;;;;;1.20;0.77;;;10.40;99.90;;;;;;2057972;28;20452;-72
2024/01/03 03:16:38;;;;;;;0.63;0.63;;;10.40;99.90;;;;;;2062093;28;20033;-70
2024/01/03 03:17:38;;;;;;;0.75;0.70;;;10.30;99.90;;;;;;2063252;28;20033;-70
2024/01/03 03:18:39;;;;;;;2.42;0.82;;;10.30;99.90;;;;;;2062223;28;20033;-70
2024/01/03 03:19:39;;;;;;;0.82;0.70;;;10.30;99.90;;;;;;2060881;28;20038;-71
2024/01/03 03:20:40;;;;;;;0.70;0.70;;;10.30;99.90;;;;;;2059792;28;20045;-71
2024/01/03 03:21:40;;;;;;;1.13;0.80;;;10.30;99.90;;;;;;2059985;28;20034;-70
2024/01/03 03:22:41;;;;;;;0.82;0.70;;;10.30;99.90;;;;;;2063292;28;20117;-71
2024/01/03 03:23:41;;;;;;;2.35;0.70;;;10.40;99.90;;;;;;2062847;28;20044;-71
2024/01/03 03:24:42;;;;;;;0.70;0.70;;;10.30;99.90;;;;;;2059316;28;20030;-71
2024/01/03 03:25:42;;;;;;;2.05;0.70;;;10.30;99.90;;;;;;2062787;28;20617;-71
2024/01/03 03:26:43;;;;;;;2.05;0.80;;;10.40;99.90;;;;;;2059755;28;20030;-71
2024/01/03 03:27:43;;;;;;;1.27;0.77;;;10.40;99.90;;;;;;2059576;28;20037;-71
2024/01/03 03:28:44;;;;;;;2.70;0.93;;;10.30;99.90;;;;;;2059540;28;20030;-71
2024/01/03 03:29:44;;;;;;;0.95;0.90;;;10.30;99.90;;;;;;2059385;28;20099;-69
2024/01/03 03:30:45;;;;;;;1.23;0.90;;;10.30;99.90;;;;;;2055898;28;20031;-69
2024/01/03 03:31:45;;;;;;;1.15;1.00;;;10.30;99.90;;;;;;2054466;28;20030;-71
2024/01/03 03:32:47;;;;;;;1.00;0.90;;;10.20;99.90;;;;;;2063986;28;20040;-69
2024/01/03 03:33:47;;;;;;;1.45;0.80;;;10.20;99.90;;;;;;2059644;28;20054;-71
2024/01/03 03:34:49;;;;;;;0.68;0.68;;;10.30;99.90;;;;;;2062690;28;20034;-71
2024/01/03 03:35:50;;;;;;;1.13;0.88;;;10.40;99.90;;;;;;2059441;28;20037;-71
2024/01/03 03:36:50;;;;;;;0.90;0.70;;;10.30;99.90;;;;;;2062767;28;20058;-70
2024/01/03 03:37:51;;;;;;;1.25;0.80;;;10.30;99.90;;;;;;2059186;28;20057;-70
2024/01/03 03:38:51;;;;;;;1.33;0.70;;;10.30;99.90;;;;;;2059605;28;20030;-70
2024/01/03 03:39:52;;;;;;;0.85;0.85;;;10.40;99.90;;;;;;2059310;28;20093;-70
2024/01/03 03:40:53;;;;;;;0.70;0.70;;;10.40;99.90;;;;;;2059407;28;20026;-71
2024/01/03 03:41:53;;;;;;;1.05;0.60;;;10.30;99.90;;;;;;2059185;28;20023;-70
2024/01/03 03:42:54;;;;;;;0.80;0.80;;;10.30;99.90;;;;;;2063449;28;20022;-69
2024/01/03 03:43:55;;;;;;;0.90;0.80;;;10.30;99.90;;;;;;2054701;28;20030;-70
2024/01/03 03:44:55;;;;;;;7.55;5.63;;;10.30;99.90;;;;;;2051004;28;20026;-69
2024/01/03 03:45:58;;;;;;;2.35;1.00;;;10.30;99.90;;;;;;2062351;28;20073;-71
2024/01/03 03:46:58;;;;;;;1.60;1.00;;;10.30;99.90;;;;;;2063342;28;20064;-70
2024/01/03 03:47:59;;;;;;;0.98;0.93;;;10.30;99.90;;;;;;2058743;28;20185;-70
2024/01/03 03:49:00;;;;;;;1.67;1.02;;;10.30;99.90;;;;;;2058798;28;20444;-71
2024/01/03 03:50:00;;;;;;;2.33;1.55;;;10.30;99.90;;;;;;2062967;28;20480;-70
2024/01/03 03:51:01;;;;;;;2.85;2.28;;;10.30;99.90;;;;;;2063747;28;20107;-70
2024/01/03 03:52:01;;;;;;;1.45;1.35;;;10.20;99.90;;;;;;2063199;28;20026;-70
2024/01/03 03:53:04;;;;;;;1.15;1.00;;;10.20;99.90;;;;;;2059720;28;20042;-71
2024/01/03 03:54:04;;;;;;;0.95;0.80;;;10.20;99.90;;;;;;2062553;28;20046;-70
2024/01/03 03:55:06;;;;;;;0.80;0.60;;;10.10;99.90;;;;;;2063443;28;20076;-71
2024/01/03 03:56:06;;;;;;;0.70;0.70;;;10.10;99.90;;;;;;2055717;28;20066;-70
2024/01/03 03:57:07;;;;;;;2.10;1.40;;;10.10;99.90;;;;;;2057773;28;20134;-70
2024/01/03 03:58:08;;;;;;;2.05;1.33;;;10.10;99.90;;;;;;2061500;28;20019;-72
2024/01/03 03:59:08;;;;;;;1.55;1.08;;;10.10;99.90;;;;;;2061746;28;20495;-70
2024/01/03 04:00:10;;;;;;;1.98;1.00;;;10.20;99.90;;;;;;2058611;28;20023;-70
2024/01/03 04:01:13;;;;;;;3.85;3.10;;;10.20;99.90;;;;;;2061248;28;20156;-71
2024/01/03 04:02:14;;;;;;;1.67;1.55;;;10.20;99.90;;;;;;2063447;28;20033;-70
2024/01/03 04:03:14;;;;;;;3.35;2.17;;;10.30;99.90;;;;;;2061459;28;20069;-69
2024/01/03 04:04:16;;;;;;;0.88;0.70;;;10.30;99.90;;;;;;2061081;28;20279;-70
2024/01/03 04:05:17;;;;;;;1.10;0.95;;;10.30;99.90;;;;;;2059382;28;21008;-71
2024/01/03 04:06:18;;;;;;;0.90;0.80;;;10.30;99.90;;;;;;2059402;28;20041;-70
2024/01/03 04:07:18;;;;;;;0.80;0.70;;;10.30;99.90;;;;;;2059717;28;20034;-70
2024/01/03 04:08:19;;;;;;;3.30;0.90;;;10.30;99.90;;;;;;2062066;28;20037;-71
2024/01/03 04:09:20;;;;;;;1.48;1.00;;;10.30;99.90;;;;;;2062429;28;20030;-71
2024/01/03 04:10:20;;;;;;;1.17;0.70;;;10.30;99.90;;;;;;2059749;28;20034;-70
2024/01/03 04:11:21;;;;;;;1.10;0.80;;;10.30;99.90;;;;;;2063203;28;20073;-70
2024/01/03 04:12:21;;;;;;;2.17;0.85;;;10.20;99.90;;;;;;2057999;28;20105;-70
2024/01/03 04:13:22;;;;;;;0.98;0.70;;;10.20;99.90;;;;;;2058921;28;20025;-70
2024/01/03 04:14:22;;;;;;;1.65;0.88;;;10.20;99.90;;;;;;2058220;28;20065;-70
2024/01/03 04:15:24;;;;;;;1.02;0.98;;;10.30;99.90;;;;;;2062036;28;20032;-70
2024/01/03 04:16:25;;;;;;;1.60;0.85;;;10.30;99.90;;;;;;2058258;28;20030;-70
2024/01/03 04:17:25;;;;;;;1.65;0.90;;;10.30;99.90;;;;;;2057867;28;20053;-71
2024/01/03 04:18:26;;;;;;;1.05;0.70;;;10.30;99.90;;;;;;2059049;28;20148;-69
2024/01/03 04:19:26;;;;;;;1.48;0.80;;;10.30;99.90;;;;;;2056711;28;20058;-70
2024/01/03 04:20:27;;;;;;;1.30;0.70;;;10.30;99.90;;;;;;2058872;28;20057;-70
2024/01/03 04:21:29;;;;;;;0.85;0.60;;;10.30;99.90;;;;;;2060272;28;20506;-69
2024/01/03 04:22:29;;;;;;;1.17;0.80;;;10.30;99.90;;;;;;2057839;28;20030;-69
2024/01/03 04:23:30;;;;;;;0.77;0.65;;;10.30;99.90;;;;;;2057917;28;20061;-70
2024/01/03 04:24:31;;;;;;;1.23;0.60;;;10.30;99.90;;;;;;2059838;28;20053;-69
2024/01/03 04:25:31;;;;;;;1.60;0.80;;;10.30;99.90;;;;;;2059726;28;20034;-70
2024/01/03 04:26:32;;;;;;;1.67;0.95;;;10.30;99.90;;;;;;2062184;28;20105;-69
2024/01/03 04:27:32;;;;;;;1.65;0.80;;;10.30;99.90;;;;;;2054302;28;20456;-70
2024/01/03 04:28:33;;;;;;;0.95;0.77;;;10.30;99.90;;;;;;2062548;28;20056;-70
2024/01/03 04:29:33;;;;;;;0.60;0.60;;;10.30;99.90;;;;;;2055232;28;20030;-70
2024/01/03 04:30:34;;;;;;;1.38;0.90;;;10.30;99.90;;;;;;2053939;28;20038;-70
2024/01/03 04:31:34;;;;;;;0.60;0.60;;;10.30;99.90;;;;;;2045703;28;20483;-70
2024/01/03 04:32:35;;;;;;;1.05;0.70;;;10.30;99.90;;;;;;2059426;28;20042;-70
2024/01/03 04:33:35;;;;;;;0.60;0.60;;;10.40;99.90;;;;;;2060058;28;20118;-71
2024/01/03 04:34:39;;;;;;;1.85;0.70;;;10.40;99.90;;;;;;2058531;28;20377;-70
2024/01/03 04:35:40;;;;;;;2.70;0.77;;;10.30;99.90;;;;;;2059290;28;20058;-70
2024/01/03 04:36:40;;;;;;;0.98;0.75;;;10.30;99.90;;;;;;2060347;28;20026;-70
2024/01/03 04:37:41;;;;;;;0.85;0.70;;;10.30;99.90;;;;;;2060408;28;20026;-70
2024/01/03 04:38:41;;;;;;;0.95;0.70;;;10.30;99.90;;;;;;2060815;28;20546;-71
2024/01/03 04:39:42;;;;;;;2.58;1.02;;;10.30;99.90;;;;;;2060749;28;20038;-70
2024/01/03 04:40:42;;;;;;;0.80;0.70;;;10.30;99.90;;;;;;2064825;28;20034;-70
2024/01/03 04:41:43;;;;;;;1.30;0.65;;;10.30;99.90;;;;;;2061896;28;20043;-70
2024/01/03 04:42:43;;;;;;;1.35;0.70;;;10.30;99.90;;;;;;2063503;28;20492;-69
2024/01/03 04:43:44;;;;;;;1.85;0.80;;;10.30;99.90;;;;;;2059870;28;20442;-70
2024/01/03 04:44:44;;;;;;;2.35;0.80;;;10.30;99.90;;;;;;2053315;28;20118;-71
2024/01/03 04:45:47;;;;;;;1.00;0.90;;;10.30;99.90;;;;;;2060776;28;20019;-71
2024/01/03 04:46:47;;;;;;;1.15;0.70;;;10.30;99.90;;;;;;2072281;28;20065;-70
2024/01/03 04:47:48;;;;;;;0.70;0.60;;;10.30;99.90;;;;;;2071830;28;20034;-71
2024/01/03 04:48:48;;;;;;;1.63;0.90;;;10.30;99.90;;;;;;2061942;28;20030;-70
2024/01/03 04:49:49;;;;;;;1.05;0.90;;;10.30;99.90;;;;;;2063420;28;20026;-70
2024/01/03 04:50:49;;;;;;;1.08;0.90;;;10.30;99.90;;;;;;2064716;28;20041;-70
2024/01/03 04:51:50;;;;;;;0.73;0.70;;;10.20;99.90;;;;;;2062105;28;20026;-70
2024/01/03 04:52:50;;;;;;;2.13;0.90;;;10.20;99.90;;;;;;2063278;28;20038;-70
2024/01/03 04:53:51;;;;;;;0.80;0.80;;;10.20;99.90;;;;;;2054096;28;20027;-70
2024/01/03 04:54:51;;;;;;;1.02;0.90;;;10.20;99.90;;;;;;2056142;28;20051;-71
2024/01/03 04:55:52;;;;;;;0.82;0.75;;;10.20;99.90;;;;;;2058605;28;20503;-70
2024/01/03 04:56:53;;;;;;;1.10;1.00;;;10.20;99.90;;;;;;2064718;28;20036;-70
2024/01/03 04:57:54;;;;;;;0.75;0.75;;;10.10;99.90;;;;;;2062212;28;20030;-71
2024/01/03 04:58:54;;;;;;;1.40;0.80;;;10.10;99.90;;;;;;2062386;28;20031;-70
2024/01/03 04:59:55;;;;;;;0.77;0.77;;;10.10;99.90;;;;;;2064682;28;20030;-70
2024/01/03 05:00:55;;;;;;;0.70;0.70;;;10.10;99.90;;;;;;2062901;28;20023;-70
2024/01/03 05:01:56;;;;;;;1.55;0.70;;;10.10;99.90;;;;;;2062276;28;20104;-70
2024/01/03 05:02:56;;;;;;;1.50;0.70;;;10.10;99.90;;;;;;2064478;28;20801;-69
2024/01/03 05:03:57;;;;;;;1.17;0.90;;;10.10;99.90;;;;;;2063425;28;20745;-70
2024/01/03 05:04:57;;;;;;;1.02;0.70;;;10.10;99.90;;;;;;2064343;28;20045;-70
2024/01/03 05:05:58;;;;;;;1.35;0.80;;;10.00;99.90;;;;;;2062677;28;20030;-71
2024/01/03 05:06:58;;;;;;;1.45;0.80;;;10.00;99.90;;;;;;2062485;28;20027;-70
2024/01/03 05:07:59;;;;;;;1.65;0.88;;;10.00;99.90;;;;;;2061849;28;20030;-70
2024/01/03 05:09:00;;;;;;;1.23;0.75;;;10.10;99.90;;;;;;2066059;28;20030;-71
2024/01/03 05:10:01;;;;;;;1.35;0.75;;;10.10;99.90;;;;;;2062156;28;20077;-70
2024/01/03 05:11:01;;;;;;;1.83;0.98;;;10.10;99.90;;;;;;2062196;28;20117;-70
2024/01/03 05:12:02;;;;;;;1.42;0.77;;;10.10;99.90;;;;;;2061279;28;23047;-69
2024/01/03 05:13:03;;;;;;;3.03;1.00;;;10.10;99.90;;;;;;2064281;28;20041;-71
2024/01/03 05:14:04;;;;;;;1.02;0.85;;;10.10;99.90;;;;;;2060579;28;20035;-70
2024/01/03 05:15:05;;;;;;;1.20;0.80;;;10.00;99.90;;;;;;2060430;28;20392;-70
2024/01/03 05:16:06;;;;;;;1.05;0.95;;;10.00;99.90;;;;;;2061905;28;20045;-70
2024/01/03 05:17:07;;;;;;;2.25;0.80;;;10.00;99.90;;;;;;2060440;28;20370;-71
2024/01/03 05:18:07;;;;;;;2.38;1.10;;;10.00;99.90;;;;;;2060419;28;20117;-71
2024/01/03 05:19:08;;;;;;;1.50;0.98;;;10.10;99.90;;;;;;2060318;28;20033;-70